EGGD Airport Information

Runway Information
Runway 09 Length 6598 ft width 151 ft
Elevation 613 ft Threshold 0 ft Heading 86
Runway 27 Length 6598 ft Width 151 ft
Elevation 601 ft Threshold 443 ft Heading 266
Airport Frequencies
Type ATIS Name ATIS Frequency 126.025 MHZ
Type GND Name GND Frequency 121.925 MHZ
Type RDR Name RDR Frequency 136.075 MHZ
Type TWR Name TWR Frequency 133.85 MHZ
Airport Navaids
Type NDB Name Bristol Frequency 414 KHZ
Airport Weather Information & NOTAM
ADDS - METARS form results

(1733 UTC 16 April 2021)
Data provider http://aviationweather.gov/metar/data/
 
METAR text: EGGD 161720Z AUTO 02008KT 9999 BKN049 09/M02 Q1029
Conditions at: EGGD (BRISTOL/LULSGATE, GB) observed 1720 UTC 16 April 2021
Temperature: 9.0°C (48°F)
Dewpoint: -2.0°C (28°F) [RH = 46%]
Pressure (altimeter): 30.38 inches Hg (1029.0 mb)
Winds: from the NNE (20 degrees) at 9 MPH (8 knots; 4.1 m/s)
Visibility: 6 or more miles (10+ km)
Ceiling: 4900 feet AGL
Clouds: broken clouds at 4900 feet AGL
Weather: no significant weather observed at this time

METAR text: EGGD 161650Z AUTO 02006KT 340V070 9999 BKN045 09/M01 Q1029
Conditions at: EGGD (BRISTOL/LULSGATE, GB) observed 1650 UTC 16 April 2021
Temperature: 9.0°C (48°F)
Dewpoint: -1.0°C (30°F) [RH = 49%]
Pressure (altimeter): 30.38 inches Hg (1029.0 mb)
Winds: from the NNE (20 degrees) at 7 MPH (6 knots; 3.1 m/s)
Visibility: 6 or more miles (10+ km)
Ceiling: 4500 feet AGL
Clouds: broken clouds at 4500 feet AGL
Weather: no significant weather observed at this time

Forecast for: EGGD (BRISTOL/LULSGATE, GB)
Text: TAF EGGD 161654Z 1618/1718 VRB04KT 9999 SCT045
Forecast period: 1800 UTC 16 April 2021 to 1800 UTC 17 April 2021
Forecast type: FROM: standard forecast or significant change
Winds: variable direction winds at 5 MPH (4 knots; 2.1 m/s)
Visibility: 6 or more miles (10+ km)
Ceiling: at least 12,000 feet AGL
Clouds: scattered clouds at 4500 feet AGL
Weather: no significant weather forecast for this period